Wheeler, Indiana
Current Conditions -  °F | °C
As of 2:52 AM on Thursday 23 Oct 2014 (Local Time) from KVPZ Reporting Station
Haze Haze  
Wind Chill: 34°   Ceiling: 400
Heat Index: 34°   Visibility: 0.75mi
Dew Point: 34°   Wind: 3mph
Humidity: 100%   Direction: 50°NE
Pressure: 30.26"   Gusts: NA
Location:  41.51°N, 87.18°W
Report Text: KVPZ 230752Z AUTO 05003KT 3/4SM BR VV004 01/01 A3026 RMK AO2 TSNO
Loading
Personal Weather Stations






























Interactive Weather Map New forecast layout! Learn more

10-Day Weather Forecast

Advertisements
Track Severe Weather on mobile